sensor_id;sensor_type;location;lat;lon;timestamp;P1;durP1;ratioP1;P2;durP2;ratioP2
63714;SDS011;49858;48.956;9.076;2024-02-04T00:00:43;0.70;;;0.60;;
63714;SDS011;49858;48.956;9.076;2024-02-04T00:03:11;1.45;;;0.80;;
63714;SDS011;49858;48.956;9.076;2024-02-04T00:05:42;1.60;;;0.63;;
63714;SDS011;49858;48.956;9.076;2024-02-04T00:08:10;1.02;;;0.60;;
63714;SDS011;49858;48.956;9.076;2024-02-04T00:10:43;1.23;;;0.60;;
63714;SDS011;49858;48.956;9.076;2024-02-04T00:13:11;1.42;;;0.70;;
63714;SDS011;49858;48.956;9.076;2024-02-04T00:15:39;0.60;;;0.60;;
63714;SDS011;49858;48.956;9.076;2024-02-04T00:18:10;1.45;;;0.65;;
63714;SDS011;49858;48.956;9.076;2024-02-04T00:20:39;1.50;;;0.57;;
63714;SDS011;49858;48.956;9.076;2024-02-04T00:23:09;0.65;;;0.50;;
63714;SDS011;49858;48.956;9.076;2024-02-04T00:25:37;0.52;;;0.45;;
63714;SDS011;49858;48.956;9.076;2024-02-04T00:28:08;0.63;;;0.50;;
63714;SDS011;49858;48.956;9.076;2024-02-04T00:30:39;0.60;;;0.60;;
63714;SDS011;49858;48.956;9.076;2024-02-04T00:33:08;0.50;;;0.50;;
63714;SDS011;49858;48.956;9.076;2024-02-04T00:35:36;1.23;;;0.50;;
63714;SDS011;49858;48.956;9.076;2024-02-04T00:38:05;0.82;;;0.60;;
63714;SDS011;49858;48.956;9.076;2024-02-04T00:40:34;0.70;;;0.60;;
63714;SDS011;49858;48.956;9.076;2024-02-04T00:43:04;0.73;;;0.50;;
63714;SDS011;49858;48.956;9.076;2024-02-04T00:45:40;0.50;;;0.50;;
63714;SDS011;49858;48.956;9.076;2024-02-04T00:48:08;1.20;;;0.63;;
63714;SDS011;49858;48.956;9.076;2024-02-04T00:50:37;0.35;;;0.35;;
63714;SDS011;49858;48.956;9.076;2024-02-04T00:53:10;0.70;;;0.70;;
63714;SDS011;49858;48.956;9.076;2024-02-04T00:55:40;1.45;;;0.45;;
63714;SDS011;49858;48.956;9.076;2024-02-04T00:58:08;0.50;;;0.50;;
63714;SDS011;49858;48.956;9.076;2024-02-04T01:00:36;0.40;;;0.40;;
63714;SDS011;49858;48.956;9.076;2024-02-04T01:03:05;0.57;;;0.40;;
63714;SDS011;49858;48.956;9.076;2024-02-04T01:05:33;0.63;;;0.50;;
63714;SDS011;49858;48.956;9.076;2024-02-04T01:08:02;0.65;;;0.45;;
63714;SDS011;49858;48.956;9.076;2024-02-04T01:10:30;0.95;;;0.50;;
63714;SDS011;49858;48.956;9.076;2024-02-04T01:13:01;0.57;;;0.45;;
63714;SDS011;49858;48.956;9.076;2024-02-04T01:15:33;1.30;;;0.60;;
63714;SDS011;49858;48.956;9.076;2024-02-04T01:18:03;0.70;;;0.57;;
63714;SDS011;49858;48.956;9.076;2024-02-04T01:20:31;0.57;;;0.50;;
63714;SDS011;49858;48.956;9.076;2024-02-04T01:23:09;0.57;;;0.40;;
63714;SDS011;49858;48.956;9.076;2024-02-04T01:25:37;0.50;;;0.50;;
63714;SDS011;49858;48.956;9.076;2024-02-04T01:28:12;0.80;;;0.50;;
63714;SDS011;49858;48.956;9.076;2024-02-04T01:30:40;0.40;;;0.40;;
63714;SDS011;49858;48.956;9.076;2024-02-04T01:33:09;2.42;;;0.75;;
63714;SDS011;49858;48.956;9.076;2024-02-04T01:35:37;0.90;;;0.43;;
63714;SDS011;49858;48.956;9.076;2024-02-04T01:38:05;0.50;;;0.50;;
63714;SDS011;49858;48.956;9.076;2024-02-04T01:40:34;0.80;;;0.60;;
63714;SDS011;49858;48.956;9.076;2024-02-04T01:43:02;1.40;;;0.60;;
63714;SDS011;49858;48.956;9.076;2024-02-04T01:45:34;1.15;;;0.63;;
63714;SDS011;49858;48.956;9.076;2024-02-04T01:48:09;0.82;;;0.50;;
63714;SDS011;49858;48.956;9.076;2024-02-04T01:50:38;1.05;;;0.50;;
63714;SDS011;49858;48.956;9.076;2024-02-04T01:53:07;0.43;;;0.43;;
63714;SDS011;49858;48.956;9.076;2024-02-04T01:55:36;0.85;;;0.43;;
63714;SDS011;49858;48.956;9.076;2024-02-04T01:58:10;0.35;;;0.35;;
63714;SDS011;49858;48.956;9.076;2024-02-04T02:00:40;1.20;;;0.60;;
63714;SDS011;49858;48.956;9.076;2024-02-04T02:03:11;0.45;;;0.45;;
63714;SDS011;49858;48.956;9.076;2024-02-04T02:05:40;1.40;;;0.57;;
63714;SDS011;49858;48.956;9.076;2024-02-04T02:08:09;1.40;;;0.60;;
63714;SDS011;49858;48.956;9.076;2024-02-04T02:10:38;1.75;;;0.50;;
63714;SDS011;49858;48.956;9.076;2024-02-04T02:13:11;0.40;;;0.40;;
63714;SDS011;49858;48.956;9.076;2024-02-04T02:15:48;0.57;;;0.57;;
63714;SDS011;49858;48.956;9.076;2024-02-04T02:18:20;1.17;;;0.60;;
63714;SDS011;49858;48.956;9.076;2024-02-04T02:20:56;0.52;;;0.52;;
63714;SDS011;49858;48.956;9.076;2024-02-04T02:23:55;0.85;;;0.63;;
63714;SDS011;49858;48.956;9.076;2024-02-04T02:26:35;1.63;;;0.60;;
63714;SDS011;49858;48.956;9.076;2024-02-04T02:29:05;0.77;;;0.60;;
63714;SDS011;49858;48.956;9.076;2024-02-04T02:31:35;0.50;;;0.50;;
63714;SDS011;49858;48.956;9.076;2024-02-04T02:34:17;0.85;;;0.50;;
63714;SDS011;49858;48.956;9.076;2024-02-04T02:37:05;0.60;;;0.60;;
63714;SDS011;49858;48.956;9.076;2024-02-04T02:39:49;1.45;;;0.70;;
63714;SDS011;49858;48.956;9.076;2024-02-04T02:42:28;0.75;;;0.60;;
63714;SDS011;49858;48.956;9.076;2024-02-04T02:44:57;0.70;;;0.50;;
63714;SDS011;49858;48.956;9.076;2024-02-04T02:47:27;1.58;;;0.60;;
63714;SDS011;49858;48.956;9.076;2024-02-04T02:49:57;0.60;;;0.50;;
63714;SDS011;49858;48.956;9.076;2024-02-04T02:52:27;0.50;;;0.50;;
63714;SDS011;49858;48.956;9.076;2024-02-04T02:54:56;0.68;;;0.60;;
63714;SDS011;49858;48.956;9.076;2024-02-04T02:57:25;0.70;;;0.60;;
63714;SDS011;49858;48.956;9.076;2024-02-04T02:59:55;1.25;;;0.75;;
63714;SDS011;49858;48.956;9.076;2024-02-04T03:02:23;0.75;;;0.50;;
63714;SDS011;49858;48.956;9.076;2024-02-04T03:04:54;0.75;;;0.50;;
63714;SDS011;49858;48.956;9.076;2024-02-04T03:07:22;0.50;;;0.50;;
63714;SDS011;49858;48.956;9.076;2024-02-04T03:09:52;0.40;;;0.40;;
63714;SDS011;49858;48.956;9.076;2024-02-04T03:12:22;1.25;;;0.50;;
63714;SDS011;49858;48.956;9.076;2024-02-04T03:14:51;0.40;;;0.40;;
63714;SDS011;49858;48.956;9.076;2024-02-04T03:17:21;0.60;;;0.50;;
63714;SDS011;49858;48.956;9.076;2024-02-04T03:19:51;0.50;;;0.45;;
63714;SDS011;49858;48.956;9.076;2024-02-04T03:22:22;0.77;;;0.50;;
63714;SDS011;49858;48.956;9.076;2024-02-04T03:24:50;0.50;;;0.50;;
63714;SDS011;49858;48.956;9.076;2024-02-04T03:27:19;0.50;;;0.50;;
63714;SDS011;49858;48.956;9.076;2024-02-04T03:29:48;0.50;;;0.47;;
63714;SDS011;49858;48.956;9.076;2024-02-04T03:32:22;0.55;;;0.40;;
63714;SDS011;49858;48.956;9.076;2024-02-04T03:34:50;0.73;;;0.57;;
63714;SDS011;49858;48.956;9.076;2024-02-04T03:37:19;0.75;;;0.60;;
63714;SDS011;49858;48.956;9.076;2024-02-04T03:39:47;0.80;;;0.50;;
63714;SDS011;49858;48.956;9.076;2024-02-04T03:42:17;0.47;;;0.47;;
63714;SDS011;49858;48.956;9.076;2024-02-04T03:44:48;0.95;;;0.68;;
63714;SDS011;49858;48.956;9.076;2024-02-04T03:47:21;1.65;;;0.55;;
63714;SDS011;49858;48.956;9.076;2024-02-04T03:49:53;0.40;;;0.40;;
63714;SDS011;49858;48.956;9.076;2024-02-04T03:52:22;0.40;;;0.40;;
63714;SDS011;49858;48.956;9.076;2024-02-04T03:54:49;0.50;;;0.50;;
63714;SDS011;49858;48.956;9.076;2024-02-04T03:57:17;0.50;;;0.50;;
63714;SDS011;49858;48.956;9.076;2024-02-04T03:59:45;0.50;;;0.40;;
63714;SDS011;49858;48.956;9.076;2024-02-04T04:02:13;0.60;;;0.50;;
63714;SDS011;49858;48.956;9.076;2024-02-04T04:04:43;1.00;;;0.60;;
63714;SDS011;49858;48.956;9.076;2024-02-04T04:07:14;0.40;;;0.40;;
63714;SDS011;49858;48.956;9.076;2024-02-04T04:09:45;0.63;;;0.43;;
63714;SDS011;49858;48.956;9.076;2024-02-04T04:12:14;0.98;;;0.50;;
63714;SDS011;49858;48.956;9.076;2024-02-04T04:14:42;0.68;;;0.52;;
63714;SDS011;49858;48.956;9.076;2024-02-04T04:17:10;0.68;;;0.60;;
63714;SDS011;49858;48.956;9.076;2024-02-04T04:19:40;0.50;;;0.50;;
63714;SDS011;49858;48.956;9.076;2024-02-04T04:22:09;0.40;;;0.40;;
63714;SDS011;49858;48.956;9.076;2024-02-04T04:24:38;1.10;;;0.55;;
63714;SDS011;49858;48.956;9.076;2024-02-04T04:27:06;0.55;;;0.40;;
63714;SDS011;49858;48.956;9.076;2024-02-04T04:29:34;0.65;;;0.50;;
63714;SDS011;49858;48.956;9.076;2024-02-04T04:32:02;1.60;;;0.70;;
63714;SDS011;49858;48.956;9.076;2024-02-04T04:34:31;1.02;;;0.60;;
63714;SDS011;49858;48.956;9.076;2024-02-04T04:37:02;0.50;;;0.50;;
63714;SDS011;49858;48.956;9.076;2024-02-04T04:39:32;0.40;;;0.40;;
63714;SDS011;49858;48.956;9.076;2024-02-04T04:42:01;0.40;;;0.40;;
63714;SDS011;49858;48.956;9.076;2024-02-04T04:44:30;0.60;;;0.47;;
63714;SDS011;49858;48.956;9.076;2024-02-04T04:46:58;0.50;;;0.50;;
63714;SDS011;49858;48.956;9.076;2024-02-04T04:49:26;0.50;;;0.50;;
63714;SDS011;49858;48.956;9.076;2024-02-04T04:51:54;0.77;;;0.60;;
63714;SDS011;49858;48.956;9.076;2024-02-04T04:54:23;0.47;;;0.47;;
63714;SDS011;49858;48.956;9.076;2024-02-04T04:56:52;0.55;;;0.50;;
63714;SDS011;49858;48.956;9.076;2024-02-04T04:59:23;0.30;;;0.30;;
63714;SDS011;49858;48.956;9.076;2024-02-04T05:01:51;0.50;;;0.50;;
63714;SDS011;49858;48.956;9.076;2024-02-04T05:04:19;0.40;;;0.40;;
63714;SDS011;49858;48.956;9.076;2024-02-04T05:06:50;0.40;;;0.40;;
63714;SDS011;49858;48.956;9.076;2024-02-04T05:09:18;1.40;;;0.60;;
63714;SDS011;49858;48.956;9.076;2024-02-04T05:11:47;0.40;;;0.40;;
63714;SDS011;49858;48.956;9.076;2024-02-04T05:14:16;0.30;;;0.30;;
63714;SDS011;49858;48.956;9.076;2024-02-04T05:16:45;0.40;;;0.40;;
63714;SDS011;49858;48.956;9.076;2024-02-04T05:19:13;0.38;;;0.38;;
63714;SDS011;49858;48.956;9.076;2024-02-04T05:21:44;0.40;;;0.40;;
63714;SDS011;49858;48.956;9.076;2024-02-04T05:24:13;0.40;;;0.40;;
63714;SDS011;49858;48.956;9.076;2024-02-04T05:26:41;1.05;;;0.40;;
63714;SDS011;49858;48.956;9.076;2024-02-04T05:29:09;0.40;;;0.30;;
63714;SDS011;49858;48.956;9.076;2024-02-04T05:31:41;0.50;;;0.37;;
63714;SDS011;49858;48.956;9.076;2024-02-04T05:34:10;0.47;;;0.47;;
63714;SDS011;49858;48.956;9.076;2024-02-04T05:36:38;0.38;;;0.38;;
63714;SDS011;49858;48.956;9.076;2024-02-04T05:39:10;0.40;;;0.40;;
63714;SDS011;49858;48.956;9.076;2024-02-04T05:41:39;0.30;;;0.30;;
63714;SDS011;49858;48.956;9.076;2024-02-04T05:44:08;0.30;;;0.30;;
63714;SDS011;49858;48.956;9.076;2024-02-04T05:46:36;0.40;;;0.40;;
63714;SDS011;49858;48.956;9.076;2024-02-04T05:49:07;0.25;;;0.25;;
63714;SDS011;49858;48.956;9.076;2024-02-04T05:51:37;0.30;;;0.30;;
63714;SDS011;49858;48.956;9.076;2024-02-04T05:54:06;0.40;;;0.40;;
63714;SDS011;49858;48.956;9.076;2024-02-04T05:56:34;0.35;;;0.35;;
63714;SDS011;49858;48.956;9.076;2024-02-04T05:59:03;0.50;;;0.50;;
63714;SDS011;49858;48.956;9.076;2024-02-04T06:01:32;0.82;;;0.50;;
63714;SDS011;49858;48.956;9.076;2024-02-04T06:04:03;0.40;;;0.40;;
63714;SDS011;49858;48.956;9.076;2024-02-04T06:06:33;0.60;;;0.35;;
63714;SDS011;49858;48.956;9.076;2024-02-04T06:09:07;0.38;;;0.38;;
63714;SDS011;49858;48.956;9.076;2024-02-04T06:11:37;0.43;;;0.40;;
63714;SDS011;49858;48.956;9.076;2024-02-04T06:14:05;0.43;;;0.40;;
63714;SDS011;49858;48.956;9.076;2024-02-04T06:16:33;0.45;;;0.40;;
63714;SDS011;49858;48.956;9.076;2024-02-04T06:19:05;0.50;;;0.50;;
63714;SDS011;49858;48.956;9.076;2024-02-04T06:21:37;0.82;;;0.47;;
63714;SDS011;49858;48.956;9.076;2024-02-04T06:24:08;0.43;;;0.43;;
63714;SDS011;49858;48.956;9.076;2024-02-04T06:26:37;0.45;;;0.45;;
63714;SDS011;49858;48.956;9.076;2024-02-04T06:29:06;1.23;;;0.80;;
63714;SDS011;49858;48.956;9.076;2024-02-04T06:31:34;0.60;;;0.50;;
63714;SDS011;49858;48.956;9.076;2024-02-04T06:34:02;0.40;;;0.40;;
63714;SDS011;49858;48.956;9.076;2024-02-04T06:36:31;0.30;;;0.30;;
63714;SDS011;49858;48.956;9.076;2024-02-04T06:39:00;0.52;;;0.40;;
63714;SDS011;49858;48.956;9.076;2024-02-04T06:41:29;0.40;;;0.40;;
63714;SDS011;49858;48.956;9.076;2024-02-04T06:43:57;0.45;;;0.40;;
63714;SDS011;49858;48.956;9.076;2024-02-04T06:46:24;1.40;;;0.52;;
63714;SDS011;49858;48.956;9.076;2024-02-04T06:48:53;0.40;;;0.40;;
63714;SDS011;49858;48.956;9.076;2024-02-04T06:51:22;0.82;;;0.50;;
63714;SDS011;49858;48.956;9.076;2024-02-04T06:53:53;0.40;;;0.40;;
63714;SDS011;49858;48.956;9.076;2024-02-04T06:56:25;0.50;;;0.40;;
63714;SDS011;49858;48.956;9.076;2024-02-04T06:58:57;0.50;;;0.50;;
63714;SDS011;49858;48.956;9.076;2024-02-04T07:01:25;0.68;;;0.47;;
63714;SDS011;49858;48.956;9.076;2024-02-04T07:03:53;0.40;;;0.40;;
63714;SDS011;49858;48.956;9.076;2024-02-04T07:06:22;0.40;;;0.40;;
63714;SDS011;49858;48.956;9.076;2024-02-04T07:08:50;5.65;;;1.13;;
63714;SDS011;49858;48.956;9.076;2024-02-04T07:11:18;0.60;;;0.50;;
63714;SDS011;49858;48.956;9.076;2024-02-04T07:13:47;0.52;;;0.45;;
63714;SDS011;49858;48.956;9.076;2024-02-04T07:16:15;0.63;;;0.50;;
63714;SDS011;49858;48.956;9.076;2024-02-04T07:18:44;0.40;;;0.40;;
63714;SDS011;49858;48.956;9.076;2024-02-04T07:21:12;0.30;;;0.30;;
63714;SDS011;49858;48.956;9.076;2024-02-04T07:23:41;0.38;;;0.30;;
63714;SDS011;49858;48.956;9.076;2024-02-04T07:26:09;0.70;;;0.50;;
63714;SDS011;49858;48.956;9.076;2024-02-04T07:28:38;0.90;;;0.52;;
63714;SDS011;49858;48.956;9.076;2024-02-04T07:31:08;0.40;;;0.40;;
63714;SDS011;49858;48.956;9.076;2024-02-04T07:33:36;0.52;;;0.50;;
63714;SDS011;49858;48.956;9.076;2024-02-04T07:36:05;0.47;;;0.45;;
63714;SDS011;49858;48.956;9.076;2024-02-04T07:38:34;0.40;;;0.40;;
63714;SDS011;49858;48.956;9.076;2024-02-04T07:41:02;0.52;;;0.40;;
63714;SDS011;49858;48.956;9.076;2024-02-04T07:43:31;0.30;;;0.30;;
63714;SDS011;49858;48.956;9.076;2024-02-04T07:45:59;0.40;;;0.40;;
63714;SDS011;49858;48.956;9.076;2024-02-04T07:48:32;0.60;;;0.50;;
63714;SDS011;49858;48.956;9.076;2024-02-04T07:51:01;0.65;;;0.60;;
63714;SDS011;49858;48.956;9.076;2024-02-04T07:53:29;0.50;;;0.45;;
63714;SDS011;49858;48.956;9.076;2024-02-04T07:55:57;0.88;;;0.60;;
63714;SDS011;49858;48.956;9.076;2024-02-04T07:58:25;0.40;;;0.40;;
63714;SDS011;49858;48.956;9.076;2024-02-04T08:00:54;0.50;;;0.50;;
63714;SDS011;49858;48.956;9.076;2024-02-04T08:03:25;0.85;;;0.68;;
63714;SDS011;49858;48.956;9.076;2024-02-04T08:05:59;0.50;;;0.50;;
63714;SDS011;49858;48.956;9.076;2024-02-04T08:08:34;0.73;;;0.50;;
63714;SDS011;49858;48.956;9.076;2024-02-04T08:11:29;0.65;;;0.40;;
63714;SDS011;49858;48.956;9.076;2024-02-04T08:18:10;0.38;;;0.38;;
63714;SDS011;49858;48.956;9.076;2024-02-04T08:25:52;0.70;;;0.63;;
63714;SDS011;49858;48.956;9.076;2024-02-04T08:28:36;0.70;;;0.50;;
63714;SDS011;49858;48.956;9.076;2024-02-04T08:31:09;0.43;;;0.43;;
63714;SDS011;49858;48.956;9.076;2024-02-04T08:33:43;0.50;;;0.50;;
63714;SDS011;49858;48.956;9.076;2024-02-04T08:36:23;1.65;;;1.05;;
63714;SDS011;49858;48.956;9.076;2024-02-04T08:38:53;0.80;;;0.52;;
63714;SDS011;49858;48.956;9.076;2024-02-04T08:41:30;0.77;;;0.50;;
63714;SDS011;49858;48.956;9.076;2024-02-04T08:44:05;0.80;;;0.52;;
63714;SDS011;49858;48.956;9.076;2024-02-04T08:46:57;0.50;;;0.50;;
63714;SDS011;49858;48.956;9.076;2024-02-04T08:49:40;0.50;;;0.50;;
63714;SDS011;49858;48.956;9.076;2024-02-04T08:52:32;0.60;;;0.60;;
63714;SDS011;49858;48.956;9.076;2024-02-04T08:55:06;0.80;;;0.40;;
63714;SDS011;49858;48.956;9.076;2024-02-04T08:57:50;0.50;;;0.50;;
63714;SDS011;49858;48.956;9.076;2024-02-04T09:00:21;0.43;;;0.43;;
63714;SDS011;49858;48.956;9.076;2024-02-04T09:02:56;0.57;;;0.50;;
63714;SDS011;49858;48.956;9.076;2024-02-04T09:05:27;0.60;;;0.50;;
63714;SDS011;49858;48.956;9.076;2024-02-04T09:07:58;0.55;;;0.47;;
63714;SDS011;49858;48.956;9.076;2024-02-04T09:10:27;0.63;;;0.50;;
63714;SDS011;49858;48.956;9.076;2024-02-04T09:12:58;0.75;;;0.50;;
63714;SDS011;49858;48.956;9.076;2024-02-04T09:15:26;0.55;;;0.50;;
63714;SDS011;49858;48.956;9.076;2024-02-04T09:17:54;0.60;;;0.40;;
63714;SDS011;49858;48.956;9.076;2024-02-04T09:20:22;0.63;;;0.40;;
63714;SDS011;49858;48.956;9.076;2024-02-04T09:22:51;0.55;;;0.50;;
63714;SDS011;49858;48.956;9.076;2024-02-04T09:25:19;0.60;;;0.60;;
63714;SDS011;49858;48.956;9.076;2024-02-04T09:27:49;0.95;;;0.52;;
63714;SDS011;49858;48.956;9.076;2024-02-04T09:30:20;0.60;;;0.50;;
63714;SDS011;49858;48.956;9.076;2024-02-04T09:32:48;1.60;;;0.52;;
63714;SDS011;49858;48.956;9.076;2024-02-04T09:35:16;0.50;;;0.47;;
63714;SDS011;49858;48.956;9.076;2024-02-04T09:37:45;0.50;;;0.50;;
63714;SDS011;49858;48.956;9.076;2024-02-04T09:40:13;6.47;;;0.60;;
63714;SDS011;49858;48.956;9.076;2024-02-04T09:42:41;0.38;;;0.38;;
63714;SDS011;49858;48.956;9.076;2024-02-04T09:45:11;0.75;;;0.45;;
63714;SDS011;49858;48.956;9.076;2024-02-04T09:47:42;0.80;;;0.45;;
63714;SDS011;49858;48.956;9.076;2024-02-04T09:50:12;0.50;;;0.50;;
63714;SDS011;49858;48.956;9.076;2024-02-04T09:52:48;1.08;;;0.50;;
63714;SDS011;49858;48.956;9.076;2024-02-04T09:55:19;0.40;;;0.40;;
63714;SDS011;49858;48.956;9.076;2024-02-04T09:57:49;1.25;;;0.50;;
63714;SDS011;49858;48.956;9.076;2024-02-04T10:00:19;1.65;;;0.40;;
63714;SDS011;49858;48.956;9.076;2024-02-04T10:02:48;0.30;;;0.30;;
63714;SDS011;49858;48.956;9.076;2024-02-04T10:05:17;0.85;;;0.40;;
63714;SDS011;49858;48.956;9.076;2024-02-04T10:07:45;0.38;;;0.38;;
63714;SDS011;49858;48.956;9.076;2024-02-04T10:10:13;0.30;;;0.30;;
63714;SDS011;49858;48.956;9.076;2024-02-04T10:12:43;0.40;;;0.38;;
63714;SDS011;49858;48.956;9.076;2024-02-04T10:15:12;0.50;;;0.50;;
63714;SDS011;49858;48.956;9.076;2024-02-04T10:17:46;0.73;;;0.50;;
63714;SDS011;49858;48.956;9.076;2024-02-04T10:20:17;0.60;;;0.47;;
63714;SDS011;49858;48.956;9.076;2024-02-04T10:22:47;0.50;;;0.30;;
63714;SDS011;49858;48.956;9.076;2024-02-04T10:25:20;0.45;;;0.40;;
63714;SDS011;49858;48.956;9.076;2024-02-04T10:27:55;0.57;;;0.43;;
63714;SDS011;49858;48.956;9.076;2024-02-04T10:30:27;0.60;;;0.50;;
63714;SDS011;49858;48.956;9.076;2024-02-04T10:32:56;0.68;;;0.40;;
63714;SDS011;49858;48.956;9.076;2024-02-04T10:35:25;0.88;;;0.50;;
63714;SDS011;49858;48.956;9.076;2024-02-04T10:37:53;0.77;;;0.47;;
63714;SDS011;49858;48.956;9.076;2024-02-04T10:40:21;0.73;;;0.50;;
63714;SDS011;49858;48.956;9.076;2024-02-04T10:42:49;0.40;;;0.40;;
63714;SDS011;49858;48.956;9.076;2024-02-04T10:45:20;0.50;;;0.40;;
63714;SDS011;49858;48.956;9.076;2024-02-04T10:47:55;0.55;;;0.43;;
63714;SDS011;49858;48.956;9.076;2024-02-04T10:50:28;1.63;;;0.50;;
63714;SDS011;49858;48.956;9.076;2024-02-04T10:53:02;0.73;;;0.60;;
63714;SDS011;49858;48.956;9.076;2024-02-04T10:55:39;0.85;;;0.40;;
63714;SDS011;49858;48.956;9.076;2024-02-04T10:58:13;0.57;;;0.40;;
63714;SDS011;49858;48.956;9.076;2024-02-04T11:03:21;0.60;;;0.40;;
63714;SDS011;49858;48.956;9.076;2024-02-04T11:05:54;0.47;;;0.47;;
63714;SDS011;49858;48.956;9.076;2024-02-04T11:08:22;0.50;;;0.40;;
63714;SDS011;49858;48.956;9.076;2024-02-04T11:10:51;1.50;;;0.47;;
63714;SDS011;49858;48.956;9.076;2024-02-04T11:13:19;0.43;;;0.40;;
63714;SDS011;49858;48.956;9.076;2024-02-04T11:15:50;0.50;;;0.50;;
63714;SDS011;49858;48.956;9.076;2024-02-04T11:18:28;0.50;;;0.40;;
63714;SDS011;49858;48.956;9.076;2024-02-04T11:23:46;0.57;;;0.50;;
63714;SDS011;49858;48.956;9.076;2024-02-04T11:26:24;0.30;;;0.30;;
63714;SDS011;49858;48.956;9.076;2024-02-04T11:28:53;0.43;;;0.40;;
63714;SDS011;49858;48.956;9.076;2024-02-04T11:31:22;0.50;;;0.50;;
63714;SDS011;49858;48.956;9.076;2024-02-04T11:33:52;0.90;;;0.40;;
63714;SDS011;49858;48.956;9.076;2024-02-04T11:36:24;0.57;;;0.50;;
63714;SDS011;49858;48.956;9.076;2024-02-04T11:38:53;0.82;;;0.50;;
63714;SDS011;49858;48.956;9.076;2024-02-04T11:41:22;0.60;;;0.50;;
63714;SDS011;49858;48.956;9.076;2024-02-04T11:43:52;0.70;;;0.50;;
63714;SDS011;49858;48.956;9.076;2024-02-04T11:46:27;0.85;;;0.70;;
63714;SDS011;49858;48.956;9.076;2024-02-04T11:48:57;0.50;;;0.50;;
63714;SDS011;49858;48.956;9.076;2024-02-04T11:51:29;0.80;;;0.45;;
63714;SDS011;49858;48.956;9.076;2024-02-04T11:53:58;0.70;;;0.47;;
63714;SDS011;49858;48.956;9.076;2024-02-04T11:56:30;0.73;;;0.50;;
63714;SDS011;49858;48.956;9.076;2024-02-04T11:59:01;0.88;;;0.70;;
63714;SDS011;49858;48.956;9.076;2024-02-04T12:01:31;0.88;;;0.60;;
63714;SDS011;49858;48.956;9.076;2024-02-04T12:04:12;0.93;;;0.57;;
63714;SDS011;49858;48.956;9.076;2024-02-04T12:06:41;0.50;;;0.30;;
63714;SDS011;49858;48.956;9.076;2024-02-04T12:09:10;0.65;;;0.40;;
63714;SDS011;49858;48.956;9.076;2024-02-04T12:11:39;0.95;;;0.47;;
63714;SDS011;49858;48.956;9.076;2024-02-04T12:14:11;0.90;;;0.50;;
63714;SDS011;49858;48.956;9.076;2024-02-04T12:16:42;0.63;;;0.50;;
63714;SDS011;49858;48.956;9.076;2024-02-04T12:19:12;0.85;;;0.60;;
63714;SDS011;49858;48.956;9.076;2024-02-04T12:21:41;0.55;;;0.43;;
63714;SDS011;49858;48.956;9.076;2024-02-04T12:24:09;0.80;;;0.60;;
63714;SDS011;49858;48.956;9.076;2024-02-04T12:26:38;0.80;;;0.60;;
63714;SDS011;49858;48.956;9.076;2024-02-04T12:29:06;1.00;;;0.57;;
63714;SDS011;49858;48.956;9.076;2024-02-04T12:31:35;0.82;;;0.50;;
63714;SDS011;49858;48.956;9.076;2024-02-04T12:34:07;0.95;;;0.50;;
63714;SDS011;49858;48.956;9.076;2024-02-04T12:36:40;0.95;;;0.60;;
63714;SDS011;49858;48.956;9.076;2024-02-04T12:39:13;0.40;;;0.40;;
63714;SDS011;49858;48.956;9.076;2024-02-04T12:41:41;0.85;;;0.52;;
63714;SDS011;49858;48.956;9.076;2024-02-04T12:44:09;0.40;;;0.40;;
63714;SDS011;49858;48.956;9.076;2024-02-04T12:46:37;0.57;;;0.57;;
63714;SDS011;49858;48.956;9.076;2024-02-04T12:49:06;0.50;;;0.40;;
63714;SDS011;49858;48.956;9.076;2024-02-04T12:51:37;0.40;;;0.40;;
63714;SDS011;49858;48.956;9.076;2024-02-04T12:54:08;0.95;;;0.40;;
63714;SDS011;49858;48.956;9.076;2024-02-04T12:56:41;1.05;;;0.63;;
63714;SDS011;49858;48.956;9.076;2024-02-04T12:59:23;1.60;;;0.70;;
63714;SDS011;49858;48.956;9.076;2024-02-04T13:01:53;0.70;;;0.50;;
63714;SDS011;49858;48.956;9.076;2024-02-04T13:04:22;2.10;;;0.60;;
63714;SDS011;49858;48.956;9.076;2024-02-04T13:06:50;0.63;;;0.60;;
63714;SDS011;49858;48.956;9.076;2024-02-04T13:09:22;0.93;;;0.68;;
63714;SDS011;49858;48.956;9.076;2024-02-04T13:11:50;1.23;;;0.65;;
63714;SDS011;49858;48.956;9.076;2024-02-04T13:14:19;0.70;;;0.50;;
63714;SDS011;49858;48.956;9.076;2024-02-04T13:16:48;0.93;;;0.70;;
63714;SDS011;49858;48.956;9.076;2024-02-04T13:19:17;1.38;;;0.82;;
63714;SDS011;49858;48.956;9.076;2024-02-04T13:21:45;1.10;;;0.50;;
63714;SDS011;49858;48.956;9.076;2024-02-04T13:24:14;1.75;;;0.73;;
63714;SDS011;49858;48.956;9.076;2024-02-04T13:26:44;1.05;;;0.80;;
63714;SDS011;49858;48.956;9.076;2024-02-04T13:29:12;1.17;;;0.80;;
63714;SDS011;49858;48.956;9.076;2024-02-04T13:31:40;0.70;;;0.70;;
63714;SDS011;49858;48.956;9.076;2024-02-04T13:34:08;0.40;;;0.40;;
63714;SDS011;49858;48.956;9.076;2024-02-04T13:36:37;1.90;;;0.80;;
63714;SDS011;49858;48.956;9.076;2024-02-04T13:39:07;0.98;;;0.80;;
63714;SDS011;49858;48.956;9.076;2024-02-04T13:41:35;1.75;;;0.95;;
63714;SDS011;49858;48.956;9.076;2024-02-04T13:44:04;1.33;;;0.73;;
63714;SDS011;49858;48.956;9.076;2024-02-04T13:46:34;0.90;;;0.75;;
63714;SDS011;49858;48.956;9.076;2024-02-04T13:49:02;0.80;;;0.60;;
63714;SDS011;49858;48.956;9.076;2024-02-04T13:51:31;1.75;;;0.73;;
63714;SDS011;49858;48.956;9.076;2024-02-04T13:54:10;1.40;;;1.20;;
63714;SDS011;49858;48.956;9.076;2024-02-04T13:56:43;1.00;;;0.90;;
63714;SDS011;49858;48.956;9.076;2024-02-04T13:59:13;0.85;;;0.77;;
63714;SDS011;49858;48.956;9.076;2024-02-04T14:01:41;1.83;;;1.00;;
63714;SDS011;49858;48.956;9.076;2024-02-04T14:04:13;1.40;;;1.10;;
63714;SDS011;49858;48.956;9.076;2024-02-04T14:06:41;0.70;;;0.60;;
63714;SDS011;49858;48.956;9.076;2024-02-04T14:09:09;0.90;;;0.77;;
63714;SDS011;49858;48.956;9.076;2024-02-04T14:11:39;1.20;;;0.80;;
63714;SDS011;49858;48.956;9.076;2024-02-04T14:14:07;1.77;;;0.98;;
63714;SDS011;49858;48.956;9.076;2024-02-04T14:16:37;1.45;;;1.00;;
63714;SDS011;49858;48.956;9.076;2024-02-04T14:19:06;1.30;;;0.73;;
63714;SDS011;49858;48.956;9.076;2024-02-04T14:21:34;0.93;;;0.70;;
63714;SDS011;49858;48.956;9.076;2024-02-04T14:24:03;2.67;;;0.90;;
63714;SDS011;49858;48.956;9.076;2024-02-04T14:26:32;1.30;;;0.90;;
63714;SDS011;49858;48.956;9.076;2024-02-04T14:29:00;1.15;;;0.90;;
63714;SDS011;49858;48.956;9.076;2024-02-04T14:31:31;1.15;;;0.70;;
63714;SDS011;49858;48.956;9.076;2024-02-04T14:34:00;1.00;;;0.90;;
63714;SDS011;49858;48.956;9.076;2024-02-04T14:36:29;1.25;;;1.02;;
63714;SDS011;49858;48.956;9.076;2024-02-04T14:38:57;1.05;;;0.95;;
63714;SDS011;49858;48.956;9.076;2024-02-04T14:41:25;1.17;;;0.90;;
63714;SDS011;49858;48.956;9.076;2024-02-04T14:43:53;1.35;;;1.00;;
63714;SDS011;49858;48.956;9.076;2024-02-04T14:46:22;0.93;;;0.82;;
63714;SDS011;49858;48.956;9.076;2024-02-04T14:48:50;1.30;;;0.95;;
63714;SDS011;49858;48.956;9.076;2024-02-04T14:51:20;2.40;;;1.00;;
63714;SDS011;49858;48.956;9.076;2024-02-04T14:53:48;1.33;;;1.23;;
63714;SDS011;49858;48.956;9.076;2024-02-04T14:56:16;1.25;;;1.10;;
63714;SDS011;49858;48.956;9.076;2024-02-04T14:58:44;1.42;;;1.33;;
63714;SDS011;49858;48.956;9.076;2024-02-04T15:01:12;3.83;;;1.30;;
63714;SDS011;49858;48.956;9.076;2024-02-04T15:03:43;3.78;;;1.30;;
63714;SDS011;49858;48.956;9.076;2024-02-04T15:06:11;1.38;;;1.25;;
63714;SDS011;49858;48.956;9.076;2024-02-04T15:08:40;3.25;;;1.30;;
63714;SDS011;49858;48.956;9.076;2024-02-04T15:11:08;2.38;;;1.30;;
63714;SDS011;49858;48.956;9.076;2024-02-04T15:13:37;1.35;;;1.00;;
63714;SDS011;49858;48.956;9.076;2024-02-04T15:16:06;3.08;;;1.20;;
63714;SDS011;49858;48.956;9.076;2024-02-04T15:18:36;1.50;;;1.30;;
63714;SDS011;49858;48.956;9.076;2024-02-04T15:21:07;1.90;;;1.13;;